Home > Products > Valid Products > TAF

000
FTUS44 KTSA 282300
TAFFSM
TAF
KFSM 282320Z 2900/2924 12006KT P6SM SCT022 BKN250
     FM290100 08005KT P6SM SCT050 OVC100
     FM291200 08005KT P6SM VCTS BKN040CB=



000
FTUS44 KTSA 282300
TAFXNA
TAF
KXNA 282320Z 2900/2924 17007KT P6SM SCT100 BKN250
     FM291200 18004KT P6SM VCTS BKN040CB=



000
FTUS44 KTSA 282300
TAFFYV
TAF
KFYV 282320Z 2900/2924 17007KT P6SM SCT100 BKN250
     FM291200 18004KT P6SM VCTS BKN040CB=



000
FTUS44 KTSA 282300
TAFTUL
TAF
KTUL 282320Z 2900/2924 19012KT P6SM SCT035 SCT130 BKN250
     FM290900 17009KT P6SM VCTS OVC040CB=



000
FTUS44 KTSA 282300
TAFFSM
TAF
KFSM 282320Z 2900/2924 12006KT P6SM SCT022 BKN250
     FM290100 08005KT P6SM SCT050 OVC100
     FM291200 08005KT P6SM VCTS BKN040CB=



000
FTUS44 KTSA 282300
TAFFYV
TAF
KFYV 282320Z 2900/2924 17007KT P6SM SCT100 BKN250
     FM291200 18004KT P6SM VCTS BKN040CB=



000
FTUS44 KTSA 282300
TAFXNA
TAF
KXNA 282320Z 2900/2924 17007KT P6SM SCT100 BKN250
     FM291200 18004KT P6SM VCTS BKN040CB=



000
FTUS44 KTSA 282300
TAFRVS
TAF
KRVS 282320Z 2900/2924 19007KT 2SM HZ BKN035 BKN250
     FM290900 16007KT P6SM VCTS OVC040CB=



000
FTUS44 KTSA 282300
TAFTUL
TAF
KTUL 282320Z 2900/2924 19012KT P6SM SCT035 SCT130 BKN250
     FM290900 17009KT P6SM VCTS OVC040CB=



000
FTUS44 KTSA 282300
TAFMLC
TAF
KMLC 282320Z 2900/2924 19007KT P6SM SCT100 BKN250
     FM290900 14004KT P6SM VCTS OVC040CB=



000
FTUS44 KTSA 282300
TAFMLC
TAF
KMLC 282320Z 2900/2924 19007KT P6SM SCT100 BKN250
     FM290900 14004KT P6SM VCTS OVC040CB=



000
FTUS44 KTSA 281700
TAFFSM
TAF
KFSM 281722Z 2818/2918 20010G20KT 5SM -TSRA BKN021CB OVC050
      TEMPO 2818/2822 3SM TSRA BR OVC015CB
     FM282200 14007KT P6SM VCTS BKN040CB
     FM290100 08005KT P6SM SCT050 OVC100
     FM291200 08005KT P6SM VCTS BKN050CB=



000
FTUS44 KTSA 281700
TAFXNA
TAF
KXNA 281722Z 2818/2918 19005KT 5SM -TSRA BR BKN021CB BKN040 OVC120
      TEMPO 2818/2822 3SM TSRA BR OVC015CB
     FM282200 17007KT P6SM VCTS BKN040CB
     FM290100 18007KT P6SM SCT050 OVC100
     FM291200 18004KT P6SM VCTS BKN050CB=



000
FTUS44 KTSA 281700
TAFTUL
TAF
KTUL 281722Z 2818/2918 12008KT P6SM VCSH SCT080 OVC110
     FM282200 18010KT P6SM BKN100
     FM290900 17009KT P6SM VCTS OVC050CB=



000
FTUS44 KTSA 281700
TAFRVS
TAF
KRVS 281722Z 2818/2918 17005KT P6SM VCSH BKN120
     FM282200 17007KT P6SM OVC100
     FM290900 16007KT P6SM VCTS OVC050CB=



000
FTUS44 KTSA 281700
TAFMLC
TAF
KMLC 281722Z 2818/2918 13005KT P6SM VCSH BKN080 OVC100
     FM282200 17006KT P6SM SCT060 BKN100
     FM290900 14004KT P6SM VCTS OVC050CB=



000
FTUS44 KTSA 281700
TAFXNA
TAF
KXNA 281722Z 2818/2918 19005KT 5SM -TSRA BR BKN021CB BKN040 OVC120
      TEMPO 2818/2822 3SM TSRA BR OVC015CB
     FM282200 17007KT P6SM VCTS BKN040CB
     FM290100 18007KT P6SM SCT050 OVC100
     FM291200 18004KT P6SM VCTS BKN050CB=



000
FTUS44 KTSA 281700
TAFFSM
TAF
KFSM 281722Z 2818/2918 20010G20KT 5SM -TSRA BKN021CB OVC050
      TEMPO 2818/2822 3SM TSRA BR OVC015CB
     FM282200 14007KT P6SM VCTS BKN040CB
     FM290100 08005KT P6SM SCT050 OVC100
     FM291200 08005KT P6SM VCTS BKN050CB=



000
FTUS44 KTSA 281700
TAFTUL
TAF
KTUL 281722Z 2818/2918 12008KT P6SM VCSH SCT080 OVC110
     FM282200 18010KT P6SM BKN100
     FM290900 17009KT P6SM VCTS OVC050CB=



000
FTUS44 KTSA 281700
TAFFYV
TAF
KFYV 281722Z 2818/2918 00000KT P6SM -SHRA FEW019 SCT040 OVC110
      TEMPO 2818/2822 3SM TSRA BR OVC015CB
     FM282200 17007KT P6SM VCTS BKN040CB
     FM290100 18007KT P6SM SCT050 OVC100
     FM291200 18004KT P6SM VCTS BKN050CB=



000
FTUS44 KTSA 281700
TAFRVS
TAF
KRVS 281722Z 2818/2918 17005KT P6SM VCSH BKN120
     FM282200 17007KT P6SM OVC100
     FM290900 16007KT P6SM VCTS OVC050CB=



000
FTUS44 KTSA 281700
TAFMLC
TAF
KMLC 281722Z 2818/2918 13005KT P6SM VCSH BKN080 OVC100
     FM282200 17006KT P6SM SCT060 BKN100
     FM290900 14004KT P6SM VCTS OVC050CB=



000
FTUS44 KTSA 281700
TAFFYV
TAF
KFYV 281722Z 2818/2918 00000KT P6SM -SHRA FEW019 SCT040 OVC110
      TEMPO 2818/2822 3SM TSRA BR OVC015CB
     FM282200 17007KT P6SM VCTS BKN040CB
     FM290100 18007KT P6SM SCT050 OVC100
     FM291200 18004KT P6SM VCTS BKN050CB=



000
FTUS44 KTSA 281200 AAA
TAFRVS
TAF AMD
KRVS 281236Z 2813/2912 VRB04KT 5SM -TSRA SCT030 OVC050CB
      TEMPO 2813/2816 VRB15G35KT 2SM TSRA OVC030CB
     FM281800 19005KT P6SM SCT050 OVC100
     FM290200 15007KT P6SM OVC100 PROB30 2902/2906 4SM TSRA BKN050CB
     FM290600 16007KT P6SM TSRA OVC050CB=



000
FTUS44 KTSA 281100
TAFFSM
TAF
KFSM 281140Z 2812/2912 06005KT P6SM BKN100
     FM281400 08005KT P6SM VCTS SCT050 BKN100CB
     FM281600 12007KT 5SM TSRA SCT030 OVC050CB
      TEMPO 2816/2819 VRB15G35KT 2SM TSRA OVC030CB
     FM282000 16006KT P6SM SCT050 OVC100
     FM290400 12008KT P6SM OVC100 PROB30 2904/2908 4SM TSRA BKN050CB
     FM290800 07007KT P6SM TSRA OVC050CB=



000
FTUS44 KTSA 281100
TAFXNA
TAF
KXNA 281140Z 2812/2912 VRB04KT P6SM SCT150
     FM281500 18010KT 5SM TSRA SCT030 OVC050CB
      TEMPO 2816/2818 VRB15G35KT 2SM TSRA OVC030CB
     FM282000 18009KT P6SM SCT050 OVC100
     FM290600 16006KT 5SM TSRA BKN050CB=



000
FTUS44 KTSA 281100
TAFRVS
TAF
KRVS 281140Z 2812/2912 00000KT 1SM BR VCTS OVC070CB
      TEMPO 2812/2814 5SM BR OVC070
     FM281400 19004KT 5SM TSRA SCT030 OVC050CB
      TEMPO 2814/2816 VRB15G35KT 2SM TSRA OVC030CB
     FM281800 19005KT P6SM SCT050 OVC100
     FM290200 15007KT P6SM OVC100 PROB30 2902/2906 4SM TSRA BKN050CB
     FM290600 16007KT P6SM TSRA OVC050CB=



000
FTUS44 KTSA 281100
TAFTUL
TAF
KTUL 281140Z 2812/2912 01006KT P6SM VCTS BKN050CB OVC250
     FM281400 17006KT 5SM TSRA SCT030 OVC050CB
      TEMPO 2814/2816 VRB15G35KT 2SM TSRA OVC030CB
     FM281800 17007KT P6SM SCT050 OVC100
     FM290200 15008KT P6SM OVC100 PROB30 2902/2906 4SM TSRA BKN050CB
     FM290600 16008KT P6SM TSRA OVC050CB=



000
FTUS44 KTSA 281100
TAFMLC
TAF
KMLC 281140Z 2812/2912 11007KT 3SM TSRA BKN025 BKN040CB
     FM281400 16007KT 5SM TSRA SCT030 OVC050CB
      TEMPO 2814/2816 VRB15G35KT 2SM TSRA OVC030CB
     FM281800 20008KT P6SM SCT050 OVC100
     FM290500 14004KT P6SM OVC100 PROB30 2906/2910 4SM TSRA
      BKN050CB=



000
FTUS44 KTSA 281100
TAFFYV
TAF
KFYV 281140Z 2812/2912 00000KT P6SM SCT050 BKN150
     FM281500 18007KT 5SM TSRA SCT030 OVC050CB
      TEMPO 2816/2818 VRB15G35KT 2SM TSRA OVC030CB
     FM282000 18007KT P6SM SCT050 OVC100
     FM290600 18002KT 5SM TSRA BKN050CB=



000
FTUS44 KTSA 280700 AAB
TAFRVS
TAF AMD
KRVS 280744Z 2808/2906 00000KT P6SM SCT150
      TEMPO 2808/2812 2SM BR
     FM281200 18003KT P6SM SCT050 BKN250
      TEMPO 2815/2818 -TSRA BKN035CB
     FM281800 VRB06KT P6SM SCT050 BKN250 PROB30 2818/2824 5SM -TSRA
      BR BKN050CB
     FM290000 VRB06KT P6SM SCT050 BKN250 PROB30 2900/2906 4SM -TSRA
      BR BKN040CB=



000
FTUS44 KTSA 280700 AAB
TAFRVS
TAF AMD
KRVS 280744Z 2808/2906 00000KT P6SM SCT150
      TEMPO 2808/2812 2SM BR
     FM281200 18003KT P6SM SCT050 BKN250
      TEMPO 2815/2818 -TSRA BKN035CB
     FM281800 VRB06KT P6SM SCT050 BKN250 PROB30 2818/2824 5SM -TSRA
      BR BKN050CB
     FM290000 VRB06KT P6SM SCT050 BKN250 PROB30 2900/2906 4SM -TSRA
      BR BKN040CB=



000
FTUS44 KTSA 280600 AAA
TAFRVS
TAF AMD
KRVS 280602Z 2806/2906 00000KT 4SM BR SKC
      TEMPO 2807/2811 2SM BR
     FM281200 18003KT P6SM SCT050 BKN250
      TEMPO 2815/2818 -TSRA BKN035CB
     FM281800 VRB06KT P6SM SCT050 BKN250 PROB30 2818/2824 5SM -TSRA
      BR BKN050CB
     FM290000 VRB06KT P6SM SCT050 BKN250 PROB30 2900/2906 4SM -TSRA
      BR BKN040CB=



000
FTUS44 KTSA 280600 AAA
TAFRVS
TAF AMD
KRVS 280602Z 2806/2906 00000KT 4SM BR SKC
      TEMPO 2807/2811 2SM BR
     FM281200 18003KT P6SM SCT050 BKN250
      TEMPO 2815/2818 -TSRA BKN035CB
     FM281800 VRB06KT P6SM SCT050 BKN250 PROB30 2818/2824 5SM -TSRA
      BR BKN050CB
     FM290000 VRB06KT P6SM SCT050 BKN250 PROB30 2900/2906 4SM -TSRA
      BR BKN040CB=



000
FTUS44 KTSA 280500
TAFMLC
TAF
KMLC 280520Z 2806/2906 15003KT P6SM SCT040 BKN120
     FM281400 20010KT P6SM SCT050 BKN250
      TEMPO 2815/2818 -TSRA BKN035CB
     FM281800 20010KT P6SM SCT050 BKN250 PROB30 2818/2824 5SM -TSRA
      BR BKN050CB
     FM290000 VRB06KT P6SM SCT050 BKN250 PROB30 2900/2906 4SM -TSRA
      BR BKN040CB=



000
FTUS44 KTSA 280500
TAFFSM
TAF
KFSM 280520Z 2806/2906 08004KT P6SM SCT250
     FM281500 08004KT P6SM VCTS BKN050CB
     FM281800 VRB03KT P6SM SCT050 BKN250 PROB30 2818/2824 5SM -TSRA
      BR BKN050CB
     FM290000 VRB06KT P6SM SCT050 BKN250 PROB30 2900/2906 4SM -TSRA
      BR BKN040CB=



000
FTUS44 KTSA 280500
TAFRVS
TAF
KRVS 280520Z 2806/2906 16003KT P6SM SCT035 BKN120
     FM281200 18003KT P6SM SCT050 BKN250
      TEMPO 2815/2818 -TSRA BKN035CB
     FM281800 VRB06KT P6SM SCT050 BKN250 PROB30 2818/2824 5SM -TSRA
      BR BKN050CB
     FM290000 VRB06KT P6SM SCT050 BKN250 PROB30 2900/2906 4SM -TSRA
      BR BKN040CB=



000
FTUS44 KTSA 280500
TAFXNA
TAF
KXNA 280520Z 2806/2906 VRB02KT P6SM SCT250
      TEMPO 2809/2812 3SM BR
     FM281500 21004KT P6SM VCTS BKN050CB
     FM281800 VRB03KT P6SM SCT050 BKN250 PROB30 2818/2824 5SM -TSRA
      BR BKN050CB
     FM290000 VRB06KT P6SM SCT050 BKN250 PROB30 2900/2906 4SM -TSRA
      BR BKN040CB=



000
FTUS44 KTSA 280500
TAFTUL
TAF
KTUL 280520Z 2806/2906 16006KT P6SM SCT035 BKN120
     FM281200 18006KT P6SM SCT050 BKN250
      TEMPO 2815/2818 -TSRA BKN035CB
     FM281800 VRB06KT P6SM SCT050 BKN250 PROB30 2818/2824 5SM -TSRA
      BR BKN050CB
     FM290000 VRB06KT P6SM SCT050 BKN250 PROB30 2900/2906 4SM -TSRA
      BR BKN040CB=



000
FTUS44 KTSA 280500
TAFFYV
TAF
KFYV 280520Z 2806/2906 VRB02KT P6SM SCT250
      TEMPO 2809/2812 3SM BR
     FM281500 21004KT P6SM VCTS BKN050CB
     FM281800 VRB03KT P6SM SCT050 BKN250 PROB30 2818/2824 5SM -TSRA
      BR BKN050CB
     FM290000 VRB06KT P6SM SCT050 BKN250 PROB30 2900/2906 4SM -TSRA
      BR BKN040CB=



000
FTUS44 KTSA 280200 AAB
TAFXNA
TAF AMD
KXNA 280245Z 2803/2824 VRB02KT P6SM SCT250
      TEMPO 2809/2812 3SM BR
     FM281500 21004KT P6SM VCTS BKN050CB
     FM281800 VRB03KT P6SM SCT050 BKN250 PROB30 2818/2824 5SM -TSRA
      BR BKN050CB=



000
FTUS44 KTSA 280200 AAB
TAFXNA
TAF AMD
KXNA 280245Z 2803/2824 VRB02KT P6SM SCT250
      TEMPO 2809/2812 3SM BR
     FM281500 21004KT P6SM VCTS BKN050CB
     FM281800 VRB03KT P6SM SCT050 BKN250 PROB30 2818/2824 5SM -TSRA
      BR BKN050CB=



000
FTUS44 KTSA 280200 AAB
TAFFYV
TAF AMD
KFYV 280244Z 2803/2824 VRB02KT P6SM SCT250
      TEMPO 2809/2812 3SM BR
     FM281500 21004KT P6SM VCTS BKN050CB=



000
FTUS44 KTSA 280200 AAB
TAFFYV
TAF AMD
KFYV 280244Z 2803/2824 VRB02KT P6SM SCT250
      TEMPO 2809/2812 3SM BR
     FM281500 21004KT P6SM VCTS BKN050CB=



000
FTUS44 KTSA 272300 AAA
TAFFYV
TAF AMD
KFYV 272344Z 2800/2824 VRB06KT P6SM VCTS BKN040CB BKN250
     FM280600 19002KT P6SM SCT250
      TEMPO 2809/2812 3SM BR
     FM281500 21004KT P6SM VCTS BKN050CB=



000
FTUS44 KTSA 272300 AAA
TAFXNA
TAF AMD
KXNA 272344Z 2800/2824 VRB03KT P6SM VCTS BKN040CB BKN250
     FM280600 19002KT P6SM SCT250
      TEMPO 2809/2812 3SM BR
     FM281500 21004KT P6SM VCTS BKN050CB
     FM281800 VRB03KT P6SM SCT050 BKN250 PROB30 2818/2824 5SM -TSRA
      BR BKN050CB=



000
FTUS44 KTSA 272300 AAA
TAFFYV
TAF AMD
KFYV 272344Z 2800/2824 VRB06KT P6SM VCTS BKN040CB BKN250
     FM280600 19002KT P6SM SCT250
      TEMPO 2809/2812 3SM BR
     FM281500 21004KT P6SM VCTS BKN050CB=



000
FTUS44 KTSA 272300 AAA
TAFXNA
TAF AMD
KXNA 272344Z 2800/2824 VRB03KT P6SM VCTS BKN040CB BKN250
     FM280600 19002KT P6SM SCT250
      TEMPO 2809/2812 3SM BR
     FM281500 21004KT P6SM VCTS BKN050CB
     FM281800 VRB03KT P6SM SCT050 BKN250 PROB30 2818/2824 5SM -TSRA
      BR BKN050CB=



000
FTUS44 KTSA 272300
TAFXNA
TAF
KXNA 272320Z 2800/2824 VRB03KT P6SM BKN040 BKN250
     FM280600 19002KT P6SM SCT250
      TEMPO 2809/2812 3SM BR
     FM281500 21004KT P6SM VCTS BKN050CB
     FM281800 VRB03KT P6SM SCT050 BKN250 PROB30 2818/2824 5SM -TSRA
      BR BKN050CB=



000
FTUS44 KTSA 272300
TAFFSM
TAF
KFSM 272320Z 2800/2824 27006KT P6SM SCT100
     FM280300 08004KT P6SM SCT250
     FM281500 08004KT P6SM VCTS BKN050CB
     FM281800 VRB03KT P6SM SCT050 BKN250 PROB30 2818/2824 5SM -TSRA
      BR BKN050CB=



000
FTUS44 KTSA 272300
TAFMLC
TAF
KMLC 272320Z 2800/2824 VRB03KT P6SM SCT050 BKN250
     FM280300 15003KT P6SM VCTS SCT040CB BKN100
     FM281400 20010KT P6SM SCT050 BKN250 PROB30 2814/2818 5SM -TSRA
      BR BKN050CB
     FM281800 20010KT P6SM SCT050 BKN250 PROB30 2818/2824 5SM -TSRA
      BR BKN050CB=



000
FTUS44 KTSA 272300
TAFMLC
TAF
KMLC 272320Z 2800/2824 VRB03KT P6SM SCT050 BKN250
     FM280300 15003KT P6SM VCTS SCT040CB BKN100
     FM281400 20010KT P6SM SCT050 BKN250 PROB30 2814/2818 5SM -TSRA
      BR BKN050CB
     FM281800 20010KT P6SM SCT050 BKN250 PROB30 2818/2824 5SM -TSRA
      BR BKN050CB=



000
FTUS44 KTSA 272300
TAFXNA
TAF
KXNA 272320Z 2800/2824 VRB03KT P6SM BKN040 BKN250
     FM280600 19002KT P6SM SCT250
      TEMPO 2809/2812 3SM BR
     FM281500 21004KT P6SM VCTS BKN050CB
     FM281800 VRB03KT P6SM SCT050 BKN250 PROB30 2818/2824 5SM -TSRA
      BR BKN050CB=



000
FTUS44 KTSA 272300
TAFFSM
TAF
KFSM 272320Z 2800/2824 27006KT P6SM SCT100
     FM280300 08004KT P6SM SCT250
     FM281500 08004KT P6SM VCTS BKN050CB
     FM281800 VRB03KT P6SM SCT050 BKN250 PROB30 2818/2824 5SM -TSRA
      BR BKN050CB=



000
FTUS44 KTSA 272300
TAFTUL
TAF
KTUL 272320Z 2800/2824 18010KT P6SM SCT040 BKN120
     FM280300 16006KT P6SM VCTS SCT035CB BKN100
     FM281200 18006KT P6SM SCT050 BKN250 PROB30 2812/2818 5SM -TSRA
      BR BKN050CB
     FM281800 VRB03KT P6SM SCT050 BKN250 PROB30 2818/2824 5SM -TSRA
      BR BKN050CB=



000
FTUS44 KTSA 272300
TAFRVS
TAF
KRVS 272320Z 2800/2824 18010KT P6SM SCT040 BKN120
     FM280300 16003KT P6SM VCTS SCT035CB BKN100
     FM281200 18003KT P6SM SCT050 BKN250 PROB30 2812/2818 5SM -TSRA
      BR BKN050CB
     FM281800 VRB03KT P6SM SCT050 BKN250 PROB30 2818/2824 5SM -TSRA
      BR BKN050CB=



000
FTUS44 KTSA 272300
TAFRVS
TAF
KRVS 272320Z 2800/2824 18010KT P6SM SCT040 BKN120
     FM280300 16003KT P6SM VCTS SCT035CB BKN100
     FM281200 18003KT P6SM SCT050 BKN250 PROB30 2812/2818 5SM -TSRA
      BR BKN050CB
     FM281800 VRB03KT P6SM SCT050 BKN250 PROB30 2818/2824 5SM -TSRA
      BR BKN050CB=



000
FTUS44 KTSA 272300
TAFTUL
TAF
KTUL 272320Z 2800/2824 18010KT P6SM SCT040 BKN120
     FM280300 16006KT P6SM VCTS SCT035CB BKN100
     FM281200 18006KT P6SM SCT050 BKN250 PROB30 2812/2818 5SM -TSRA
      BR BKN050CB
     FM281800 VRB03KT P6SM SCT050 BKN250 PROB30 2818/2824 5SM -TSRA
      BR BKN050CB=



000
FTUS44 KTSA 272300
TAFFYV
TAF
KFYV 272320Z 2800/2824 VRB06KT P6SM BKN040 BKN250
     FM280600 19002KT P6SM SCT250
      TEMPO 2809/2812 3SM BR
     FM281500 21004KT P6SM VCTS BKN050CB=



000
FTUS44 KTSA 272300
TAFFYV
TAF
KFYV 272320Z 2800/2824 VRB06KT P6SM BKN040 BKN250
     FM280600 19002KT P6SM SCT250
      TEMPO 2809/2812 3SM BR
     FM281500 21004KT P6SM VCTS BKN050CB=



000
FTUS44 KTSA 271700
TAFMLC
TAF
KMLC 271720Z 2718/2818 22004KT P6SM VCTS BKN050CB
      TEMPO 2718/2721 4SM TSRA BR BKN030CB
     FM272100 21006KT P6SM SCT050 BKN250
     FM280300 15003KT P6SM VCTS SCT040CB BKN100
     FM281400 20010KT P6SM SCT050 BKN250 PROB30 2814/2818 5SM -TSRA
      BR BKN050CB=



000
FTUS44 KTSA 271700
TAFXNA
TAF
KXNA 271720Z 2718/2818 19005KT P6SM SCT100
     FM272100 20006KT P6SM VCTS SCT050CB
     FM280000 19004KT P6SM SCT250
     FM280600 19002KT P6SM SCT250
      TEMPO 2809/2812 3SM BR
     FM281500 21004KT P6SM VCTS BKN050CB=



000
FTUS44 KTSA 271700
TAFTUL
TAF
KTUL 271720Z 2718/2818 VRB04KT P6SM SCT025 SCT250
     FM280300 16006KT P6SM VCTS SCT035CB BKN100
     FM281200 18006KT P6SM SCT050 BKN250 PROB30 2812/2818 5SM -TSRA
      BR BKN050CB=



000
FTUS44 KTSA 271700
TAFFYV
TAF
KFYV 271720Z 2718/2818 19005KT P6SM SCT100
     FM272100 20006KT P6SM VCTS SCT050CB
     FM280000 19004KT P6SM SCT250
     FM280600 19002KT P6SM SCT250
      TEMPO 2809/2812 3SM BR
     FM281500 21004KT P6SM VCTS BKN050CB=



000
FTUS44 KTSA 271700
TAFFSM
TAF
KFSM 271720Z 2718/2818 03004KT P6SM SCT100
     FM280300 08004KT P6SM SCT250
     FM281500 08004KT P6SM VCTS BKN050CB=



000
FTUS44 KTSA 271700
TAFRVS
TAF
KRVS 271720Z 2718/2818 00000KT P6SM SCT025 SCT250
     FM280300 16003KT P6SM VCTS SCT035CB BKN100
     FM281200 18003KT P6SM SCT050 BKN250 PROB30 2812/2818 5SM -TSRA
      BR BKN050CB=



000
FTUS44 KTSA 271200 AAA
TAFRVS
TAF AMD
KRVS 271247Z 2713/2812 00000KT P6SM SCT200
     FM271400 16003KT P6SM SCT200
     FM271800 18006KT P6SM BKN035
     FM280300 16003KT P6SM VCTS SCT035 BKN100CB=



000
FTUS44 KTSA 271100
TAFTUL
TAF
KTUL 271137Z 2712/2812 15004KT P6SM BKN200
      TEMPO 2712/2714 SCT012
     FM271800 16007KT P6SM BKN035
     FM280300 16006KT P6SM VCTS SCT035 BKN100CB=



000
FTUS44 KTSA 271100
TAFRVS
TAF
KRVS 271137Z 2712/2812 00000KT 6SM BR SCT012 SCT200
      TEMPO 2712/2714 3SM BR BKN012
     FM271400 16003KT P6SM SCT200
     FM271800 18006KT P6SM BKN035
     FM280300 16003KT P6SM VCTS SCT035 BKN100CB=



000
FTUS44 KTSA 271100
TAFXNA
TAF
KXNA 271137Z 2712/2812 00000KT P6SM SCT200
     FM271800 20006KT P6SM SCT035 SCT200
     FM280600 16003KT P6SM BKN150
      TEMPO 2809/2812 3SM BR=



000
FTUS44 KTSA 271100
TAFMLC
TAF
KMLC 271137Z 2712/2812 11003KT 6SM BR SCT012
      TEMPO 2712/2714 3SM BR BKN012
     FM271400 15003KT P6SM BKN200
     FM271800 18005KT P6SM BKN040
     FM280300 15003KT P6SM VCTS SCT040 BKN100CB=



000
FTUS44 KTSA 271100
TAFFSM
TAF
KFSM 271137Z 2712/2812 08004KT P6SM SCT200
     FM271800 15005KT P6SM SCT040 SCT200
     FM280600 09004KT P6SM BKN150=



000
FTUS44 KTSA 271100
TAFTUL
TAF
KTUL 271137Z 2712/2812 15004KT P6SM BKN200
      TEMPO 2712/2714 SCT012
     FM271800 16007KT P6SM BKN035
     FM280300 16006KT P6SM VCTS SCT035 BKN100CB=



000
FTUS44 KTSA 271100
TAFRVS
TAF
KRVS 271137Z 2712/2812 00000KT 6SM BR SCT012 SCT200
      TEMPO 2712/2714 3SM BR BKN012
     FM271400 16003KT P6SM SCT200
     FM271800 18006KT P6SM BKN035
     FM280300 16003KT P6SM VCTS SCT035 BKN100CB=



000
FTUS44 KTSA 271100
TAFXNA
TAF
KXNA 271137Z 2712/2812 00000KT P6SM SCT200
     FM271800 20006KT P6SM SCT035 SCT200
     FM280600 16003KT P6SM BKN150
      TEMPO 2809/2812 3SM BR=



000
FTUS44 KTSA 271100
TAFMLC
TAF
KMLC 271137Z 2712/2812 11003KT 6SM BR SCT012
      TEMPO 2712/2714 3SM BR BKN012
     FM271400 15003KT P6SM BKN200
     FM271800 18005KT P6SM BKN040
     FM280300 15003KT P6SM VCTS SCT040 BKN100CB=



000
FTUS44 KTSA 271100
TAFFYV
TAF
KFYV 271137Z 2712/2812 16003KT P6SM SCT150
     FM271800 20006KT P6SM SCT035 SCT200
     FM280600 19002KT P6SM BKN200
      TEMPO 2809/2812 3SM BR=



000
FTUS44 KTSA 271100
TAFFYV
TAF
KFYV 271137Z 2712/2812 16003KT P6SM SCT150
     FM271800 20006KT P6SM SCT035 SCT200
     FM280600 19002KT P6SM BKN200
      TEMPO 2809/2812 3SM BR=



000
FTUS44 KTSA 271100
TAFFSM
TAF
KFSM 271137Z 2712/2812 08004KT P6SM SCT200
     FM271800 15005KT P6SM SCT040 SCT200
     FM280600 09004KT P6SM BKN150=



000
FTUS44 KTSA 271000 AAA
TAFFYV
TAF AMD
KFYV 271014Z 2710/2806 19003KT P6SM BKN100
     FM271800 21008KT P6SM VCTS OVC035CB=



000
FTUS44 KTSA 271000 AAE
TAFRVS
TAF AMD
KRVS 271011Z 2710/2806 00000KT 1SM BR BKN003
      TEMPO 2710/2713 5SM BR SCT003
     FM271300 20003KT P6SM SCT150
     FM271800 21008KT P6SM BKN050=



000
FTUS44 KTSA 271000 AAE
TAFRVS
TAF AMD
KRVS 271011Z 2710/2806 00000KT 1SM BR BKN003
      TEMPO 2710/2713 5SM BR SCT003
     FM271300 20003KT P6SM SCT150
     FM271800 21008KT P6SM BKN050=



000
FTUS44 KTSA 270900 AAD
TAFRVS
TAF AMD
KRVS 270934Z 2710/2806 23005KT P6SM SCT100 SCT200
     FM271800 21008KT P6SM BKN050=



000
FTUS44 KTSA 270800 AAB
TAFXNA
TAF AMD
KXNA 270820Z 2708/2806 22003KT P6SM SCT015 SCT090 SCT110
     FM271800 21008KT P6SM VCTS OVC035CB=



000
FTUS44 KTSA 270800 AAC
TAFRVS
TAF AMD
KRVS 270807Z 2708/2806 18007KT 4SM -TSRA BR BKN025 OVC035CB
      TEMPO 2708/2710 P6SM NSW SCT025 SCT035
     FM271000 18005KT P6SM SCT025 BKN150
     FM271800 21008KT P6SM OVC050=



000
FTUS44 KTSA 270700 AAA
TAFXNA
TAF AMD
KXNA 270728Z 2707/2806 29004KT 6SM TSRA BKN015 OVC035CB
      TEMPO 2707/2709 VRB10G40KT 2SM +TSRA OVC015CB
     FM271000 18005KT P6SM VCTS OVC015CB
     FM271800 21008KT P6SM VCTS OVC035CB=



000
FTUS44 KTSA 270700 AAB
TAFTUL
TAF AMD
KTUL 270725Z 2707/2806 19006KT P6SM VCTS SCT030CB OVC200
     FM270900 18006KT P6SM SCT035 BKN150
     FM271800 18005KT P6SM BKN050=



000
FTUS44 KTSA 270700 AAB
TAFRVS
TAF AMD
KRVS 270724Z 2707/2806 00000KT 2SM +TSRA BR BKN022 OVC026CB
     FM270800 VRB03KT P6SM SCT025 BKN045
      TEMPO 2708/2710 BKN025
     FM271800 21008KT P6SM OVC050=



000
FTUS44 KTSA 270600 AAA
TAFTUL
TAF AMD
KTUL 270601Z 2706/2806 17007KT P6SM BKN025 BKN035
     FM270800 18006KT P6SM SCT035 BKN150
     FM271800 18005KT P6SM BKN050=



000
FTUS44 KTSA 270600 AAA
TAFTUL
TAF AMD
KTUL 270601Z 2706/2806 17007KT P6SM BKN025 BKN035
     FM270800 18006KT P6SM SCT035 BKN150
     FM271800 18005KT P6SM BKN050=



000
FTUS44 KTSA 270600 AAA
TAFRVS
TAF AMD
KRVS 270601Z 2706/2806 00000KT P6SM SCT025 BKN150
      TEMPO 2706/2709 BKN025
     FM271800 21008KT P6SM OVC050=



000
FTUS44 KTSA 270600 AAA
TAFRVS
TAF AMD
KRVS 270601Z 2706/2806 00000KT P6SM SCT025 BKN150
      TEMPO 2706/2709 BKN025
     FM271800 21008KT P6SM OVC050=



000
FTUS44 KTSA 270500
TAFFYV
TAF
KFYV 270520Z 2706/2806 20002KT P6SM VCTS SCT050CB BKN150
     FM271000 21005KT P6SM VCTS OVC015CB
     FM271800 21008KT P6SM VCTS OVC035CB=



000
FTUS44 KTSA 270500
TAFRVS
TAF
KRVS 270520Z 2706/2806 18006KT P6SM VCTS SCT050CB BKN150
      TEMPO 2706/2709 3SM -TSRA BKN025CB
     FM271800 21008KT P6SM OVC050=



000
FTUS44 KTSA 270500
TAFXNA
TAF
KXNA 270520Z 2706/2806 20002KT P6SM VCTS SCT050CB BKN150
     FM271000 18005KT P6SM VCTS OVC015CB
     FM271800 21008KT P6SM VCTS OVC035CB=



000
FTUS44 KTSA 270500
TAFTUL
TAF
KTUL 270520Z 2706/2806 18006KT P6SM VCTS SCT050CB BKN150
      TEMPO 2706/2709 3SM -TSRA BKN025CB
     FM271800 18005KT P6SM BKN050=



000
FTUS44 KTSA 270500
TAFFSM
TAF
KFSM 270520Z 2706/2806 08005KT P6SM VCTS SCT050CB BKN150
     FM271000 08005KT P6SM VCTS OVC015CB
     FM271800 21008KT P6SM VCTS OVC035CB=



000
FTUS44 KTSA 270500
TAFMLC
TAF
KMLC 270520Z 2706/2806 18006KT P6SM VCTS SCT050CB BKN150
     FM271800 18005KT P6SM BKN050=



000
FTUS44 KTSA 270300 AAA
TAFRVS
TAF AMD
KRVS 270327Z 2703/2724 18006KT P6SM VCTS SCT030CB BKN150
      TEMPO 2703/2707 3SM -TSRA BKN025CB
     FM270800 18005KT P6SM BKN050
     FM271800 21008KT P6SM OVC050=



000
FTUS44 KTSA 262300
TAFMLC
TAF
KMLC 262320Z 2700/2724 19008G15KT P6SM FEW040
     FM270300 18006KT P6SM VCTS SCT050CB BKN150
     FM270900 18005KT P6SM BKN050 PROB30 2712/2718 3SM -TSRA
      BKN025CB=



000
FTUS44 KTSA 262300
TAFXNA
TAF
KXNA 262320Z 2700/2724 19006KT P6SM SKC
     FM270400 20002KT P6SM VCTS SCT050CB BKN150
     FM271000 18005KT P6SM OVC015 PROB30 2712/2718 3SM -TSRA
      BKN025CB
     FM271800 21008KT P6SM OVC050=



000
FTUS44 KTSA 262300
TAFTUL
TAF
KTUL 262320Z 2700/2724 16007KT P6SM SCT045 BKN140
     FM270100 18006KT P6SM VCTS SCT050CB BKN150
     FM270800 18005KT P6SM BKN050 PROB30 2709/2713 3SM -TSRA
      BKN025CB=



000
FTUS44 KTSA 262300
TAFFYV
TAF
KFYV 262320Z 2700/2724 20008KT P6SM SKC
     FM270400 20002KT P6SM VCTS SCT050CB BKN150
     FM271000 21005KT P6SM OVC015 PROB30 2712/2718 3SM -TSRA
      BKN025CB
     FM271800 21008KT P6SM OVC050=



000
FTUS44 KTSA 262300
TAFRVS
TAF
KRVS 262320Z 2700/2724 09005KT P6SM BKN060
     FM270100 18006KT P6SM VCTS SCT050CB BKN150
     FM270800 18005KT P6SM BKN050 PROB30 2709/2713 3SM -TSRA
      BKN025CB
     FM271800 21008KT P6SM OVC050=



000
FTUS44 KTSA 262300
TAFFSM
TAF
KFSM 262320Z 2700/2724 07007KT P6SM SKC
     FM270400 08005KT P6SM VCTS SCT050CB BKN150
     FM271000 08005KT P6SM OVC015 PROB30 2712/2718 3SM -TSRA
      BKN025CB
     FM271800 21008KT P6SM OVC050=



000
FTUS44 KTSA 261700
TAFFYV
TAF
KFYV 261720Z 2618/2718 19010G15KT P6SM BKN024
     FM262000 19010KT P6SM SCT025
     FM270400 20002KT P6SM VCTS SCT050CB BKN150 PROB30 2704/2709 4SM
      -TSRA OVC030CB
     FM271000 21005KT P6SM OVC015=



000
FTUS44 KTSA 261700
TAFRVS
TAF
KRVS 261720Z 2618/2718 22008KT P6SM FEW023 SCT100
     FM270100 18006KT P6SM VCTS SCT050CB BKN150 PROB30 2703/2707 4SM
      -TSRA OVC030CB
     FM270800 18005KT P6SM BKN050=



000
FTUS44 KTSA 261700
TAFXNA
TAF
KXNA 261720Z 2618/2718 21009KT P6SM OVC019
     FM262000 19010KT P6SM SCT025
     FM270400 20002KT P6SM VCTS SCT050CB BKN150 PROB30 2704/2709 4SM
      -TSRA OVC030CB
     FM271000 18005KT P6SM OVC015=



000
FTUS44 KTSA 261700
TAFFSM
TAF
KFSM 261720Z 2618/2718 26005KT P6SM BKN028
     FM262000 19010KT P6SM SCT025
     FM270400 08005KT P6SM VCTS SCT050CB BKN150 PROB30 2704/2709 4SM
      -TSRA OVC030CB
     FM271000 08005KT P6SM OVC015=



000
FTUS44 KTSA 261700
TAFMLC
TAF
KMLC 261720Z 2618/2718 22007KT P6SM SCT018 SCT120
     FM270300 18006KT P6SM VCTS SCT050CB BKN150 PROB30 2703/2708 4SM
      -TSRA OVC030CB
     FM270900 18005KT P6SM BKN050=



000
FTUS44 KTSA 261700
TAFTUL
TAF
KTUL 261720Z 2618/2718 23006KT P6SM FEW025 SCT100 SCT250
     FM270100 18006KT P6SM VCTS SCT050CB BKN150 PROB30 2703/2707 4SM
      -TSRA OVC030CB
     FM270800 18005KT P6SM BKN050=



000
FTUS44 KTSA 261700
TAFMLC
TAF
KMLC 261720Z 2618/2718 22007KT P6SM SCT018 SCT120
     FM270300 18006KT P6SM VCTS SCT050CB BKN150 PROB30 2703/2708 4SM
      -TSRA OVC030CB
     FM270900 18005KT P6SM BKN050=



000
FTUS44 KTSA 261700
TAFFSM
TAF
KFSM 261720Z 2618/2718 26005KT P6SM BKN028
     FM262000 19010KT P6SM SCT025
     FM270400 08005KT P6SM VCTS SCT050CB BKN150 PROB30 2704/2709 4SM
      -TSRA OVC030CB
     FM271000 08005KT P6SM OVC015=



000
FTUS44 KTSA 261700
TAFXNA
TAF
KXNA 261720Z 2618/2718 21009KT P6SM OVC019
     FM262000 19010KT P6SM SCT025
     FM270400 20002KT P6SM VCTS SCT050CB BKN150 PROB30 2704/2709 4SM
      -TSRA OVC030CB
     FM271000 18005KT P6SM OVC015=



000
FTUS44 KTSA 261400 AAA
TAFMLC
TAF AMD
KMLC 261404Z 2614/2712 23011KT P6SM BKN009
      TEMPO 2614/2617 SCT009
     FM261700 22005KT P6SM SCT015 SCT250
     FM270200 14003KT P6SM BKN150
     FM270600 VRB05KT P6SM VCTS SCT025CB BKN150=



000
FTUS44 KTSA 261400 AAA
TAFRVS
TAF AMD
KRVS 261402Z 2614/2712 21007KT P6SM BKN009
      TEMPO 2614/2616 SCT009
     FM261600 20009KT P6SM SCT015
     FM270300 17003KT P6SM BKN150 PROB30 2703/2707 4SM -TSRA
      BKN040CB
     FM270700 17003KT P6SM BKN150=



000
FTUS44 KTSA 261400 AAA
TAFRVS
TAF AMD
KRVS 261402Z 2614/2712 21007KT P6SM BKN009
      TEMPO 2614/2616 SCT009
     FM261600 20009KT P6SM SCT015
     FM270300 17003KT P6SM BKN150 PROB30 2703/2707 4SM -TSRA
      BKN040CB
     FM270700 17003KT P6SM BKN150=



000
FTUS44 KTSA 261400 AAA
TAFTUL
TAF AMD
KTUL 261401Z 2614/2712 24008KT P6SM BKN009
      TEMPO 2614/2616 SCT009
     FM261600 19008KT P6SM SCT015
     FM270300 18006KT P6SM BKN150 PROB30 2703/2707 4SM -TSRA
      BKN040CB
     FM270700 18005KT P6SM BKN150=



000
FTUS44 KTSA 261400 AAA
TAFTUL
TAF AMD
KTUL 261401Z 2614/2712 24008KT P6SM BKN009
      TEMPO 2614/2616 SCT009
     FM261600 19008KT P6SM SCT015
     FM270300 18006KT P6SM BKN150 PROB30 2703/2707 4SM -TSRA
      BKN040CB
     FM270700 18005KT P6SM BKN150=



000
FTUS44 KTSA 261100
TAFFSM
TAF
KFSM 261139Z 2612/2712 15005KT P6SM SCT020 OVC040
     FM261700 23005KT P6SM SCT040
     FM270400 08005KT P6SM BKN150 PROB30 2704/2708 4SM -TSRA
      BKN050CB=



000
FTUS44 KTSA 261100
TAFXNA
TAF
KXNA 261139Z 2612/2712 21008KT P6SM BKN012 OVC025
     FM261600 22007KT P6SM BKN025
     FM261800 21008KT P6SM BKN250
     FM270400 19005KT P6SM BKN150 PROB30 2704/2708 4SM -TSRA
      BKN050CB=



000
FTUS44 KTSA 261100
TAFRVS
TAF
KRVS 261139Z 2612/2712 20004KT P6SM SCT120 SCT250
      TEMPO 2612/2614 BKN008
     FM270300 17003KT P6SM BKN150 PROB30 2703/2707 4SM -TSRA
      BKN040CB
     FM270700 17003KT P6SM BKN150=



000
FTUS44 KTSA 261100
TAFFYV
TAF
KFYV 261139Z 2612/2712 21008KT P6SM BKN015 OVC025
     FM261600 24006KT P6SM BKN025
     FM261800 22006KT P6SM BKN250
     FM270400 20002KT P6SM BKN150 PROB30 2704/2708 4SM -TSRA
      BKN050CB=



000
FTUS44 KTSA 261100
TAFFSM
TAF
KFSM 261139Z 2612/2712 15005KT P6SM SCT020 OVC040
     FM261700 23005KT P6SM SCT040
     FM270400 08005KT P6SM BKN150 PROB30 2704/2708 4SM -TSRA
      BKN050CB=



000
FTUS44 KTSA 261100
TAFMLC
TAF
KMLC 261139Z 2612/2712 22006KT P6SM SCT008
      TEMPO 2612/2614 BKN008
     FM261500 22005KT P6SM SCT120 SCT250
     FM261700 22005KT P6SM SCT250
     FM270200 14003KT P6SM BKN150=



000
FTUS44 KTSA 261100
TAFTUL
TAF
KTUL 261139Z 2612/2712 19008KT P6SM SCT120 SCT250
      TEMPO 2612/2614 BKN008
     FM270300 18006KT P6SM BKN150 PROB30 2703/2707 4SM -TSRA
      BKN040CB
     FM270700 18005KT P6SM BKN150=



000
FTUS44 KTSA 261100
TAFTUL
TAF
KTUL 261139Z 2612/2712 19008KT P6SM SCT120 SCT250
      TEMPO 2612/2614 BKN008
     FM270300 18006KT P6SM BKN150 PROB30 2703/2707 4SM -TSRA
      BKN040CB
     FM270700 18005KT P6SM BKN150=



000
FTUS44 KTSA 261100
TAFXNA
TAF
KXNA 261139Z 2612/2712 21008KT P6SM BKN012 OVC025
     FM261600 22007KT P6SM BKN025
     FM261800 21008KT P6SM BKN250
     FM270400 19005KT P6SM BKN150 PROB30 2704/2708 4SM -TSRA
      BKN050CB=



000
FTUS44 KTSA 261100
TAFRVS
TAF
KRVS 261139Z 2612/2712 20004KT P6SM SCT120 SCT250
      TEMPO 2612/2614 BKN008
     FM270300 17003KT P6SM BKN150 PROB30 2703/2707 4SM -TSRA
      BKN040CB
     FM270700 17003KT P6SM BKN150=



000
FTUS44 KTSA 261100
TAFFYV
TAF
KFYV 261139Z 2612/2712 21008KT P6SM BKN015 OVC025
     FM261600 24006KT P6SM BKN025
     FM261800 22006KT P6SM BKN250
     FM270400 20002KT P6SM BKN150 PROB30 2704/2708 4SM -TSRA
      BKN050CB=



000
FTUS44 KTSA 261100
TAFMLC
TAF
KMLC 261139Z 2612/2712 22006KT P6SM SCT008
      TEMPO 2612/2614 BKN008
     FM261500 22005KT P6SM SCT120 SCT250
     FM261700 22005KT P6SM SCT250
     FM270200 14003KT P6SM BKN150=



000
FTUS44 KTSA 261000 AAC
TAFRVS
TAF AMD
KRVS 261044Z 2611/2706 22005KT P6SM SKC
      TEMPO 2611/2613 2SM BR SCT003
     FM261500 21006KT P6SM SCT250
     FM261800 19011KT P6SM SCT100 PROB30 2700/2706 -TSRA BKN050CB=



000
FTUS44 KTSA 260800 AAA
TAFMLC
TAF AMD
KMLC 260831Z 2609/2706 19003KT 6SM BR BKN008 OVC028
      TEMPO 2609/2613 3SM BR OVC006
     FM261500 23008KT P6SM OVC007
     FM261800 18007KT P6SM SCT100 PROB30 2621/2703 -TSRA BKN050CB=



000
FTUS44 KTSA 260800 AAB
TAFRVS
TAF AMD
KRVS 260830Z 2609/2706 00000KT 4SM BR SCT006 SCT110
      TEMPO 2609/2613 2SM BR BKN006
     FM261500 21006KT P6SM SCT250
     FM261800 19011KT P6SM SCT100 PROB30 2700/2706 -TSRA BKN050CB=



000
FTUS44 KTSA 260800 AAA
TAFTUL
TAF AMD
KTUL 260829Z 2608/2706 18004KT P6SM BKN250
      TEMPO 2610/2613 3SM BR SCT007
     FM261500 21006KT P6SM SCT250
     FM261800 18009KT P6SM SCT100 PROB30 2700/2706 -TSRA BKN050CB=



000
FTUS44 KTSA 260700 AAA
TAFRVS
TAF AMD
KRVS 260704Z 2607/2706 17004KT P6SM SCT015 BKN100
      TEMPO 2607/2608 2SM BR BKN015
     FM260800 VRB02KT 2SM BR OVC007
     FM261500 21006KT P6SM SCT250
     FM261800 19011KT P6SM SCT100 PROB30 2700/2706 -TSRA BKN050CB=



000
FTUS44 KTSA 260500
TAFFYV
TAF
KFYV 260524Z 2606/2706 16010KT P6SM SCT020 BKN100
      TEMPO 2606/2609 SCT007 OVC020
     FM260900 22009KT 3SM BR OVC007
     FM261500 22009KT P6SM BKN015
     FM261800 22010KT P6SM SCT100 SCT250=



000
FTUS44 KTSA 260500
TAFTUL
TAF
KTUL 260524Z 2606/2706 10007KT P6SM SCT015 BKN030 OVC200
      TEMPO 2606/2608 BKN015
     FM260800 20002KT 5SM BR OVC007
     FM261500 21006KT P6SM SCT250
     FM261800 18009KT P6SM SCT100 PROB30 2700/2706 -TSRA BKN050CB=



000
FTUS44 KTSA 260500
TAFMLC
TAF
KMLC 260524Z 2606/2706 13005KT P6SM OVC020
     FM260900 20002KT 3SM BR OVC007
      TEMPO 2609/2613 1SM BR OVC002
     FM261500 23008KT P6SM OVC007
     FM261800 18007KT P6SM SCT100 PROB30 2621/2703 -TSRA BKN050CB=



000
FTUS44 KTSA 260500
TAFXNA
TAF
KXNA 260524Z 2606/2706 19010KT P6SM SCT015 BKN100
      TEMPO 2606/2609 SCT007 OVC015
     FM260900 21010KT 3SM BR OVC007
     FM261500 22008KT P6SM BKN015
     FM261800 22010KT P6SM SCT100 SCT250=



000
FTUS44 KTSA 260500
TAFFSM
TAF
KFSM 260524Z 2606/2706 09009KT P6SM SCT015 BKN110
      TEMPO 2606/2609 BKN015
     FM260900 VRB02KT 4SM BR OVC015
     FM261500 26004KT P6SM SCT025
     FM261800 16006KT P6SM SCT100 SCT250=



000
FTUS44 KTSA 260500
TAFRVS
TAF
KRVS 260524Z 2606/2706 00000KT P6SM SCT015 BKN028 OVC045
      TEMPO 2606/2608 BKN015
     FM260800 VRB02KT 2SM BR OVC007
     FM261500 21006KT P6SM SCT250
     FM261800 19011KT P6SM SCT100 PROB30 2700/2706 -TSRA BKN050CB=



000
FTUS44 KTSA 260500
TAFFYV
TAF
KFYV 260524Z 2606/2706 16010KT P6SM SCT020 BKN100
      TEMPO 2606/2609 SCT007 OVC020
     FM260900 22009KT 3SM BR OVC007
     FM261500 22009KT P6SM BKN015
     FM261800 22010KT P6SM SCT100 SCT250=



000
FTUS44 KTSA 260500
TAFTUL
TAF
KTUL 260524Z 2606/2706 10007KT P6SM SCT015 BKN030 OVC200
      TEMPO 2606/2608 BKN015
     FM260800 20002KT 5SM BR OVC007
     FM261500 21006KT P6SM SCT250
     FM261800 18009KT P6SM SCT100 PROB30 2700/2706 -TSRA BKN050CB=



000
FTUS44 KTSA 260500
TAFMLC
TAF
KMLC 260524Z 2606/2706 13005KT P6SM OVC020
     FM260900 20002KT 3SM BR OVC007
      TEMPO 2609/2613 1SM BR OVC002
     FM261500 23008KT P6SM OVC007
     FM261800 18007KT P6SM SCT100 PROB30 2621/2703 -TSRA BKN050CB=



000
FTUS44 KTSA 260500
TAFXNA
TAF
KXNA 260524Z 2606/2706 19010KT P6SM SCT015 BKN100
      TEMPO 2606/2609 SCT007 OVC015
     FM260900 21010KT 3SM BR OVC007
     FM261500 22008KT P6SM BKN015
     FM261800 22010KT P6SM SCT100 SCT250=



000
FTUS44 KTSA 260500
TAFFSM
TAF
KFSM 260524Z 2606/2706 09009KT P6SM SCT015 BKN110
      TEMPO 2606/2609 BKN015
     FM260900 VRB02KT 4SM BR OVC015
     FM261500 26004KT P6SM SCT025
     FM261800 16006KT P6SM SCT100 SCT250=



000
FTUS44 KTSA 260500
TAFRVS
TAF
KRVS 260524Z 2606/2706 00000KT P6SM SCT015 BKN028 OVC045
      TEMPO 2606/2608 BKN015
     FM260800 VRB02KT 2SM BR OVC007
     FM261500 21006KT P6SM SCT250
     FM261800 19011KT P6SM SCT100 PROB30 2700/2706 -TSRA BKN050CB=



000
FTUS44 KTSA 260300 AAC
TAFRVS
TAF AMD
KRVS 260336Z 2604/2624 VRB03KT 4SM BR OVC180
      TEMPO 2604/2606 2SM BR
     FM260600 20002KT 3SM BR OVC007
     FM261500 21005KT P6SM SCT250
     FM261800 18007KT P6SM SCT040=



    US Dept of Commerce
    National Oceanic and Atmospheric Administration
    National Weather Service
    1325 East West Highway
    Silver Spring, MD 20910
    Page Author: NWS Internet Services Team
Disclaimer
Information Quality
Credits
Glossary
Privacy Policy
Freedom of Information Act (FOIA)
About Us
Career Opportunities